Terminal Aerodrome Forecast
Issued by NWS

Current Version | Previous Version | Graphics & Text | Print | Product List | Glossary On
Versions: 1 2 3 4 5 6 7 8 9 10 11 12 13 14 15 16 17 18 19 20 21 22 23 24 25 26 27
000
FTUS41 KRLX 140910 AAA
TAFCKB
TAF AMD
KCKB 140910Z 1409/1506 29015G30KT 5SM -SHSN BKN025 OVC035
     FM141200 27011G24KT P6SM BKN015
     FM141400 28010G17KT P6SM BKN020
     FM141600 31006KT P6SM BKN030
     FM142200 00000KT P6SM BKN035=

USA.gov is the U.S. government's official web portal to all federal, state and local government web resources and services.